createdAt,value
2024-03-02T00:00:52.895Z,62.80
2024-03-02T00:03:43.862Z,55.30
2024-03-02T00:06:12.107Z,58.60
2024-03-02T00:08:40.596Z,56.70
2024-03-02T00:11:08.844Z,62.80
2024-03-02T00:13:38.532Z,56.80
2024-03-02T00:16:07.057Z,55.70
2024-03-02T00:18:37.143Z,56.50
2024-03-02T00:21:10.708Z,58.60
2024-03-02T00:23:40.046Z,59.90
2024-03-02T00:26:09.876Z,58.10
2024-03-02T00:28:39.604Z,58.40
2024-03-02T00:31:14.126Z,58.20
2024-03-02T00:33:48.013Z,58.10
2024-03-02T00:36:18.353Z,63.10
2024-03-02T00:38:49.409Z,57.00
2024-03-02T00:41:29.344Z,55.50
2024-03-02T00:44:02.931Z,62.40
2024-03-02T00:46:45.059Z,56.70
2024-03-02T00:49:24.026Z,58.30
2024-03-02T00:51:54.196Z,56.10
2024-03-02T00:54:25.639Z,61.60
2024-03-02T00:56:56.419Z,59.60
2024-03-02T00:59:25.347Z,55.80
2024-03-02T01:01:53.846Z,58.00
2024-03-02T01:04:21.926Z,53.40
2024-03-02T01:06:50.351Z,54.30
2024-03-02T01:09:19.195Z,52.70
2024-03-02T01:11:47.720Z,52.20
2024-03-02T01:14:16.593Z,58.30
2024-03-02T01:16:44.626Z,59.90
2024-03-02T01:19:12.862Z,62.20
2024-03-02T01:21:41.050Z,55.20
2024-03-02T01:24:09.061Z,60.40
2024-03-02T01:26:37.244Z,56.50
2024-03-02T01:29:05.154Z,58.00
2024-03-02T01:31:33.835Z,55.40
2024-03-02T01:34:02.206Z,54.60
2024-03-02T01:36:30.502Z,55.90
2024-03-02T01:38:58.751Z,54.50
2024-03-02T01:41:26.987Z,59.90
2024-03-02T01:43:55.104Z,51.40
2024-03-02T01:49:42.446Z,50.90
2024-03-02T01:52:10.626Z,54.60
2024-03-02T01:54:38.723Z,55.50
2024-03-02T01:57:08.044Z,54.60
2024-03-02T01:59:36.009Z,54.50
2024-03-02T02:02:04.536Z,60.40
2024-03-02T02:04:32.659Z,53.30
2024-03-02T02:07:01.167Z,58.40
2024-03-02T02:09:29.310Z,56.70
2024-03-02T02:11:57.351Z,58.50
2024-03-02T02:14:25.504Z,56.50
2024-03-02T02:16:53.608Z,52.40
2024-03-02T02:19:21.588Z,55.60
2024-03-02T02:21:52.945Z,57.50
2024-03-02T02:24:21.441Z,43.80
2024-03-02T02:26:49.521Z,58.70
2024-03-02T02:29:17.624Z,56.10
2024-03-02T02:31:45.500Z,60.00
2024-03-02T02:34:15.542Z,62.30
2024-03-02T02:36:44.399Z,62.20
2024-03-02T02:39:17.158Z,59.20
2024-03-02T02:41:45.159Z,65.10
2024-03-02T02:44:14.237Z,65.40
2024-03-02T02:46:42.540Z,60.50
2024-03-02T02:49:10.627Z,60.90
2024-03-02T02:51:38.915Z,65.00
2024-03-02T02:54:06.873Z,63.10
2024-03-02T02:56:34.889Z,58.40
2024-03-02T02:59:02.987Z,64.20
2024-03-02T03:01:31.312Z,62.30
2024-03-02T03:03:59.581Z,61.40
2024-03-02T03:06:27.567Z,59.30
2024-03-02T03:08:55.464Z,64.10
2024-03-02T03:11:26.091Z,59.70
2024-03-02T03:13:55.660Z,63.50
2024-03-02T03:16:23.629Z,65.80
2024-03-02T03:18:53.012Z,60.00
2024-03-02T03:21:21.246Z,62.30
2024-03-02T03:23:49.429Z,60.40
2024-03-02T03:26:17.492Z,62.20
2024-03-02T03:28:45.747Z,63.60
2024-03-02T03:31:13.752Z,62.20
2024-03-02T03:33:41.697Z,62.70
2024-03-02T03:36:09.858Z,68.00
2024-03-02T03:38:37.927Z,65.80
2024-03-02T03:41:05.894Z,68.70
2024-03-02T03:43:33.899Z,67.10
2024-03-02T03:46:02.463Z,61.90
2024-03-02T03:48:32.146Z,66.50
2024-03-02T03:51:00.097Z,59.80
2024-03-02T03:53:28.200Z,66.80
2024-03-02T03:55:56.235Z,67.70
2024-03-02T03:58:24.178Z,64.90
2024-03-02T04:05:21.474Z,65.40
2024-03-02T04:07:49.506Z,59.70
2024-03-02T04:10:18.233Z,60.60
2024-03-02T04:12:46.435Z,63.20
2024-03-02T04:15:14.512Z,60.00
2024-03-02T04:17:42.528Z,62.70
2024-03-02T04:20:11.235Z,63.00
2024-03-02T04:22:39.662Z,64.40
2024-03-02T04:25:08.609Z,63.10
2024-03-02T04:27:36.892Z,66.10
2024-03-02T04:34:37.238Z,63.50
2024-03-02T04:37:05.356Z,71.70
2024-03-02T04:39:33.408Z,70.40
2024-03-02T04:42:01.649Z,69.00
2024-03-02T04:44:29.716Z,67.80
2024-03-02T04:46:57.894Z,64.10
2024-03-02T04:49:25.995Z,70.20
2024-03-02T04:51:54.013Z,64.90
2024-03-02T04:54:22.190Z,64.60
2024-03-02T04:56:53.204Z,69.10
2024-03-02T04:59:21.319Z,74.00
2024-03-02T05:01:49.371Z,63.10
2024-03-02T05:04:17.496Z,64.70
2024-03-02T05:06:45.683Z,64.90
2024-03-02T05:09:13.579Z,68.20
2024-03-02T05:11:41.514Z,74.40
2024-03-02T05:14:09.637Z,67.90
2024-03-02T05:16:41.416Z,69.20
2024-03-02T05:19:09.383Z,68.90
2024-03-02T05:21:37.394Z,66.70
2024-03-02T05:24:05.718Z,66.20
2024-03-02T05:26:33.806Z,62.70
2024-03-02T05:29:01.670Z,72.90
2024-03-02T05:31:29.598Z,66.80
2024-03-02T05:33:58.695Z,69.90
2024-03-02T05:36:27.157Z,70.50
2024-03-02T05:38:55.116Z,74.50
2024-03-02T05:41:23.006Z,79.10
2024-03-02T05:43:50.870Z,72.40
2024-03-02T05:46:19.550Z,73.00
2024-03-02T05:48:47.742Z,69.20
2024-03-02T05:51:15.681Z,73.00
2024-03-02T05:53:44.101Z,70.60
2024-03-02T05:56:13.330Z,69.60
2024-03-02T05:58:48.323Z,77.40
2024-03-02T06:01:16.611Z,76.20
2024-03-02T06:03:45.248Z,70.30
2024-03-02T06:06:13.363Z,75.30
2024-03-02T06:08:41.405Z,74.00
2024-03-02T06:11:09.467Z,82.10
2024-03-02T06:13:37.462Z,88.80
2024-03-02T06:16:06.218Z,75.90
2024-03-02T06:18:34.569Z,85.40
2024-03-02T06:21:04.099Z,71.60
2024-03-02T06:23:32.073Z,73.90
2024-03-02T06:26:00.090Z,84.60
2024-03-02T06:28:28.140Z,74.40
2024-03-02T06:30:56.266Z,75.50
2024-03-02T06:33:24.477Z,77.70
2024-03-02T06:35:52.491Z,77.20
2024-03-02T06:38:20.580Z,73.70
2024-03-02T06:40:49.163Z,68.50
2024-03-02T06:43:17.261Z,71.10
2024-03-02T06:45:45.409Z,70.80
2024-03-02T06:48:13.715Z,74.80
2024-03-02T06:50:42.011Z,64.20
2024-03-02T06:53:09.953Z,72.80
2024-03-02T06:55:37.953Z,71.20
2024-03-02T06:58:06.521Z,63.30
2024-03-02T07:00:34.661Z,62.90
2024-03-02T07:03:03.518Z,63.60
2024-03-02T07:05:31.449Z,64.30
2024-03-02T07:07:59.499Z,65.20
2024-03-02T07:10:27.430Z,65.10
2024-03-02T07:12:55.462Z,64.60
2024-03-02T07:15:40.370Z,59.80
2024-03-02T07:18:08.590Z,59.50
2024-03-02T07:20:36.550Z,65.80
2024-03-02T07:23:04.568Z,61.30
2024-03-02T07:28:04.126Z,59.20
2024-03-02T07:30:34.279Z,61.00
2024-03-02T07:33:02.444Z,60.40
2024-03-02T07:35:32.919Z,60.50
2024-03-02T07:38:01.093Z,55.20
2024-03-02T07:40:29.212Z,58.90
2024-03-02T07:42:57.660Z,59.10
2024-03-02T07:45:25.647Z,59.50
2024-03-02T07:47:53.897Z,52.50
2024-03-02T07:50:21.860Z,60.60
2024-03-02T07:52:49.986Z,52.10
2024-03-02T07:55:18.089Z,62.60
2024-03-02T07:57:46.161Z,53.80
2024-03-02T08:00:15.906Z,65.10
2024-03-02T08:02:44.374Z,52.90
2024-03-02T08:05:12.892Z,55.70
2024-03-02T08:07:42.249Z,55.00
2024-03-02T08:10:10.748Z,53.10
2024-03-02T08:12:38.845Z,55.70
2024-03-02T08:15:07.930Z,51.80
2024-03-02T08:17:38.221Z,53.80
2024-03-02T08:20:08.102Z,57.10
2024-03-02T08:22:36.453Z,54.70
2024-03-02T08:25:05.331Z,53.80
2024-03-02T08:27:34.459Z,56.40
2024-03-02T08:30:05.074Z,54.80
2024-03-02T08:32:33.185Z,51.80
2024-03-02T08:35:01.253Z,59.30
2024-03-02T08:37:29.787Z,54.00
2024-03-02T08:39:57.941Z,53.10
2024-03-02T08:42:26.111Z,56.40
2024-03-02T08:44:54.120Z,58.30
2024-03-02T08:47:22.105Z,55.10
2024-03-02T08:49:50.029Z,52.00
2024-03-02T08:52:18.126Z,54.90
2024-03-02T08:54:46.310Z,52.60
2024-03-02T08:57:14.579Z,51.30
2024-03-02T08:59:42.921Z,53.30
2024-03-02T09:02:12.151Z,50.00
2024-03-02T09:04:40.121Z,57.20
2024-03-02T09:07:08.930Z,52.00
2024-03-02T09:09:36.959Z,48.80
2024-03-02T09:12:05.705Z,48.80
2024-03-02T09:14:34.604Z,50.90
2024-03-02T09:17:03.594Z,51.30
2024-03-02T09:19:31.622Z,55.20
2024-03-02T09:22:00.289Z,48.00
2024-03-02T09:24:28.432Z,48.10
2024-03-02T09:26:56.368Z,43.60
2024-03-02T09:29:24.416Z,50.00
2024-03-02T09:31:52.505Z,48.80
2024-03-02T09:34:20.711Z,48.80
2024-03-02T09:36:48.770Z,42.70
2024-03-02T09:39:16.909Z,50.30
2024-03-02T09:41:45.298Z,47.00
2024-03-02T09:44:13.389Z,46.30
2024-03-02T09:46:41.788Z,49.20
2024-03-02T09:49:09.837Z,47.30
2024-03-02T09:51:41.744Z,48.50
2024-03-02T09:54:18.066Z,45.10
2024-03-02T09:56:52.167Z,44.70
2024-03-02T09:59:21.495Z,45.10
2024-03-02T10:02:03.833Z,45.90
2024-03-02T10:04:33.634Z,54.60
2024-03-02T10:07:14.681Z,57.10
2024-03-02T10:09:47.036Z,55.90
2024-03-02T10:12:18.647Z,61.90
2024-03-02T10:14:49.713Z,56.90
2024-03-02T10:17:19.260Z,56.50
2024-03-02T10:19:47.401Z,49.10
2024-03-02T10:22:15.616Z,43.60
2024-03-02T10:24:50.214Z,44.50
2024-03-02T10:27:27.648Z,39.60
2024-03-02T10:30:07.832Z,43.10
2024-03-02T10:32:55.145Z,42.40
2024-03-02T10:35:27.314Z,38.30
2024-03-02T10:40:24.120Z,42.10
2024-03-02T10:42:55.037Z,38.10
2024-03-02T10:45:24.789Z,43.70
2024-03-02T10:47:53.767Z,37.60
2024-03-02T10:50:21.812Z,41.80
2024-03-02T10:52:49.762Z,42.60
2024-03-02T10:55:18.149Z,46.20
2024-03-02T10:57:55.222Z,40.80
2024-03-02T11:05:11.448Z,43.20
2024-03-02T11:07:39.163Z,44.80
2024-03-02T11:10:09.235Z,41.50
2024-03-02T11:12:52.034Z,49.70
2024-03-02T11:15:20.238Z,49.10
2024-03-02T11:17:48.250Z,49.30
2024-03-02T11:20:15.593Z,50.40
2024-03-02T11:22:44.938Z,41.10
2024-03-02T11:25:25.609Z,41.30
2024-03-02T11:28:00.961Z,43.40
2024-03-02T11:30:33.913Z,42.20
2024-03-02T11:33:03.941Z,38.80
2024-03-02T11:35:30.615Z,36.80
2024-03-02T11:37:59.951Z,35.80
2024-03-02T11:40:26.486Z,42.00
2024-03-02T11:42:53.378Z,36.00
2024-03-02T11:45:24.556Z,40.20
2024-03-02T11:47:52.218Z,43.80
2024-03-02T11:50:37.727Z,46.30
2024-03-02T11:53:09.186Z,40.70
2024-03-02T11:55:36.880Z,43.80
2024-03-02T11:58:07.451Z,39.70
2024-03-02T12:00:34.218Z,45.50
2024-03-02T12:03:01.872Z,48.70
2024-03-02T12:05:29.013Z,43.40
2024-03-02T12:07:59.905Z,46.20
2024-03-02T12:10:27.663Z,38.10
2024-03-02T12:12:59.065Z,38.40
2024-03-02T12:15:31.225Z,42.50
2024-03-02T12:17:59.670Z,42.70
2024-03-02T12:20:29.611Z,36.40
2024-03-02T12:22:58.893Z,40.60
2024-03-02T12:25:26.303Z,33.80
2024-03-02T12:27:58.603Z,39.30
2024-03-02T12:30:27.737Z,36.70
2024-03-02T12:32:54.976Z,36.60
2024-03-02T12:35:21.583Z,38.40
2024-03-02T12:37:50.091Z,39.40
2024-03-02T12:40:19.615Z,47.70
2024-03-02T12:42:47.245Z,35.90
2024-03-02T12:45:14.405Z,40.20
2024-03-02T12:47:43.128Z,42.90
2024-03-02T12:50:10.486Z,38.60
2024-03-02T12:52:37.832Z,41.10
2024-03-02T12:55:06.016Z,40.20
2024-03-02T12:57:34.875Z,39.40
2024-03-02T13:00:10.272Z,38.30
2024-03-02T13:02:40.804Z,45.30
2024-03-02T13:05:14.601Z,53.90
2024-03-02T13:07:41.743Z,48.50
2024-03-02T13:10:09.563Z,43.50
2024-03-02T13:12:37.172Z,44.10
2024-03-02T13:15:05.578Z,42.60
2024-03-02T13:17:37.865Z,48.20
2024-03-02T13:20:10.918Z,47.00
2024-03-02T13:22:38.275Z,53.30
2024-03-02T13:25:06.009Z,45.10
2024-03-02T13:27:33.259Z,47.80
2024-03-02T13:30:00.633Z,45.60
2024-03-02T13:32:27.655Z,49.70
2024-03-02T13:34:54.541Z,46.40
2024-03-02T13:37:22.197Z,40.30
2024-03-02T13:39:49.167Z,44.90
2024-03-02T13:42:16.041Z,44.50
2024-03-02T13:44:50.131Z,48.40
2024-03-02T13:47:16.766Z,43.60
2024-03-02T13:49:47.198Z,45.20
2024-03-02T13:52:13.968Z,42.40
2024-03-02T13:54:42.309Z,41.30
2024-03-02T13:57:10.244Z,45.60
2024-03-02T13:59:37.340Z,49.00
2024-03-02T14:02:06.055Z,53.60
2024-03-02T14:04:34.021Z,41.50
2024-03-02T14:07:01.022Z,54.20
2024-03-02T14:09:28.019Z,46.10
2024-03-02T14:11:55.852Z,48.20
2024-03-02T14:14:23.385Z,42.90
2024-03-02T14:16:50.001Z,45.90
2024-03-02T14:19:16.697Z,45.80
2024-03-02T14:21:43.445Z,43.10
2024-03-02T14:24:10.209Z,44.50
2024-03-02T14:26:37.384Z,48.20
2024-03-02T14:29:04.384Z,46.30
2024-03-02T14:31:31.866Z,44.10
2024-03-02T14:34:03.014Z,41.10
2024-03-02T14:36:29.791Z,48.60
2024-03-02T14:38:57.850Z,48.10
2024-03-02T14:41:24.864Z,47.40
2024-03-02T14:43:52.110Z,40.70
2024-03-02T14:46:19.045Z,46.70
2024-03-02T14:48:46.821Z,49.10
2024-03-02T14:51:14.156Z,47.60
2024-03-02T14:53:40.829Z,53.50
2024-03-02T14:56:07.861Z,51.60
2024-03-02T14:58:36.034Z,50.70
2024-03-02T15:01:04.087Z,49.60
2024-03-02T15:03:30.918Z,56.60
2024-03-02T15:05:58.120Z,47.70
2024-03-02T15:08:25.157Z,50.70
2024-03-02T15:10:51.752Z,47.10
2024-03-02T15:13:18.520Z,50.20
2024-03-02T15:15:45.318Z,55.50
2024-03-02T15:18:12.727Z,51.10
2024-03-02T15:20:40.837Z,56.40
2024-03-02T15:23:07.544Z,56.30
2024-03-02T15:25:34.386Z,60.00
2024-03-02T15:28:01.068Z,58.90
2024-03-02T15:30:27.691Z,67.60
2024-03-02T15:32:54.210Z,58.40
2024-03-02T15:35:20.786Z,51.80
2024-03-02T15:37:50.697Z,49.10
2024-03-02T15:40:18.771Z,47.50
2024-03-02T15:42:45.756Z,59.70
2024-03-02T15:45:12.613Z,59.50
2024-03-02T15:47:39.488Z,59.30
2024-03-02T15:50:07.761Z,69.80
2024-03-02T15:52:34.460Z,67.90
2024-03-02T15:55:02.185Z,71.30
2024-03-02T15:57:29.021Z,62.20
2024-03-02T15:59:56.032Z,68.60
2024-03-02T16:02:23.033Z,68.70
2024-03-02T16:04:49.614Z,66.60
2024-03-02T16:07:16.630Z,60.90
2024-03-02T16:09:43.302Z,58.10
2024-03-02T16:12:10.022Z,53.80
2024-03-02T16:14:36.654Z,63.70
2024-03-02T16:17:04.191Z,60.10
2024-03-02T16:19:33.393Z,67.80
2024-03-02T16:22:00.764Z,62.90
2024-03-02T16:24:28.162Z,67.90
2024-03-02T16:26:54.856Z,71.00
2024-03-02T16:29:21.556Z,54.10
2024-03-02T16:31:48.156Z,58.40
2024-03-02T16:34:14.876Z,66.00
2024-03-02T16:36:52.779Z,53.60
2024-03-02T16:39:31.813Z,59.80
2024-03-02T16:41:58.858Z,59.40
2024-03-02T16:44:25.485Z,56.60
2024-03-02T16:46:52.101Z,59.10
2024-03-02T16:49:18.632Z,62.10
2024-03-02T16:51:47.009Z,54.50
2024-03-02T16:54:13.780Z,61.30
2024-03-02T16:56:41.192Z,65.80
2024-03-02T16:59:08.185Z,101.10
2024-03-02T17:01:34.890Z,66.90
2024-03-02T17:04:04.385Z,68.20
2024-03-02T17:06:31.564Z,67.30
2024-03-02T17:08:58.637Z,75.50
2024-03-02T17:11:25.453Z,68.80
2024-03-02T17:13:57.679Z,66.70
2024-03-02T17:16:25.406Z,63.20
2024-03-02T17:18:52.940Z,71.50
2024-03-02T17:21:20.301Z,62.10
2024-03-02T17:23:47.519Z,67.90
2024-03-02T17:26:14.522Z,62.50
2024-03-02T17:28:42.246Z,52.80
2024-03-02T17:31:09.521Z,56.10
2024-03-02T17:33:36.687Z,65.00
2024-03-02T17:36:04.401Z,60.20
2024-03-02T17:38:31.940Z,62.10
2024-03-02T17:40:59.319Z,56.00
2024-03-02T17:43:26.054Z,55.70
2024-03-02T17:45:53.782Z,54.50
2024-03-02T17:48:22.333Z,57.00
2024-03-02T17:50:49.801Z,56.60
2024-03-02T17:53:16.788Z,58.90
2024-03-02T17:55:44.393Z,53.20
2024-03-02T17:58:11.443Z,53.90
2024-03-02T18:00:39.766Z,60.50
2024-03-02T18:03:07.261Z,61.60
2024-03-02T18:05:36.083Z,55.80
2024-03-02T18:08:03.309Z,62.80
2024-03-02T18:10:30.489Z,54.80
2024-03-02T18:12:57.289Z,56.30
2024-03-02T18:15:24.148Z,58.00
2024-03-02T18:17:50.921Z,53.50
2024-03-02T18:20:17.754Z,57.90
2024-03-02T18:22:44.689Z,59.70
2024-03-02T18:25:11.532Z,56.50
2024-03-02T18:27:39.023Z,53.10
2024-03-02T18:30:10.292Z,58.50
2024-03-02T18:32:39.916Z,63.20
2024-03-02T18:35:08.983Z,53.60
2024-03-02T18:37:38.535Z,64.20
2024-03-02T18:40:07.452Z,56.80
2024-03-02T18:42:35.542Z,57.30
2024-03-02T18:45:05.710Z,57.30
2024-03-02T18:47:35.015Z,51.60
2024-03-02T18:50:08.010Z,55.90
2024-03-02T18:52:36.781Z,54.60
2024-03-02T18:55:04.841Z,54.30
2024-03-02T18:57:31.943Z,60.10
2024-03-02T18:59:59.135Z,53.40
2024-03-02T19:04:53.263Z,63.60
2024-03-02T19:07:20.076Z,62.30
2024-03-02T19:09:47.059Z,63.10
2024-03-02T19:12:13.671Z,68.70
2024-03-02T19:14:40.325Z,68.40
2024-03-02T19:17:33.842Z,63.80
2024-03-02T19:20:01.346Z,68.30
2024-03-02T19:22:28.925Z,60.30
2024-03-02T19:24:57.206Z,64.10
2024-03-02T19:27:24.025Z,61.30
2024-03-02T19:29:50.724Z,58.50
2024-03-02T19:32:21.381Z,67.20
2024-03-02T19:34:49.974Z,56.00
2024-03-02T19:37:17.383Z,63.30
2024-03-02T19:39:48.595Z,66.10
2024-03-02T19:42:21.715Z,59.40
2024-03-02T19:44:48.380Z,64.00
2024-03-02T19:47:18.862Z,57.50
2024-03-02T19:49:46.797Z,55.50
2024-03-02T19:52:13.604Z,51.40
2024-03-02T19:54:40.822Z,59.90
2024-03-02T19:57:07.560Z,60.30
2024-03-02T19:59:34.442Z,53.80
2024-03-02T20:02:01.984Z,60.40
2024-03-02T20:04:28.645Z,60.40
2024-03-02T20:06:55.875Z,55.00
2024-03-02T20:09:22.775Z,56.40
2024-03-02T20:11:49.692Z,55.70
2024-03-02T20:14:16.502Z,52.20
2024-03-02T20:16:44.613Z,55.70
2024-03-02T20:19:11.721Z,59.10
2024-03-02T20:21:38.480Z,53.30
2024-03-02T20:24:06.269Z,63.20
2024-03-02T20:26:33.485Z,60.80
2024-03-02T20:29:00.166Z,51.30
2024-03-02T20:31:26.807Z,56.10
2024-03-02T20:33:53.560Z,56.50
2024-03-02T20:36:20.445Z,52.40
2024-03-02T20:38:47.618Z,50.00
2024-03-02T20:41:39.598Z,55.60
2024-03-02T20:44:07.204Z,49.10
2024-03-02T20:46:34.076Z,53.40
2024-03-02T20:49:00.961Z,58.80
2024-03-02T20:51:31.764Z,53.30
2024-03-02T20:53:59.472Z,54.80
2024-03-02T20:56:26.725Z,49.60
2024-03-02T20:58:53.655Z,48.50
2024-03-02T21:01:23.687Z,49.10
2024-03-02T21:03:50.663Z,56.30
2024-03-02T21:06:17.656Z,56.80
2024-03-02T21:08:44.539Z,53.20
2024-03-02T21:11:12.077Z,52.30
2024-03-02T21:13:39.216Z,57.90
2024-03-02T21:16:07.586Z,43.90
2024-03-02T21:18:39.379Z,58.60
2024-03-02T21:21:06.823Z,51.50
2024-03-02T21:23:34.963Z,50.50
2024-03-02T21:26:03.704Z,54.20
2024-03-02T21:28:31.116Z,53.00
2024-03-02T21:30:57.978Z,49.80
2024-03-02T21:33:28.362Z,47.80
2024-03-02T21:35:55.476Z,50.70
2024-03-02T21:38:22.228Z,48.50
2024-03-02T21:40:49.874Z,43.20
2024-03-02T21:43:17.964Z,50.50
2024-03-02T21:45:45.405Z,47.60
2024-03-02T21:48:12.092Z,53.20
2024-03-02T21:50:39.613Z,46.70
2024-03-02T21:53:06.580Z,45.80
2024-03-02T21:55:34.357Z,44.70
2024-03-02T21:58:01.564Z,47.90
2024-03-02T22:00:28.705Z,51.90
2024-03-02T22:02:58.127Z,42.10
2024-03-02T22:05:26.072Z,38.70
2024-03-02T22:07:55.020Z,47.20
2024-03-02T22:10:21.812Z,42.20
2024-03-02T22:12:48.950Z,43.20
2024-03-02T22:15:15.620Z,43.90
2024-03-02T22:17:42.261Z,46.50
2024-03-02T22:20:11.118Z,44.40
2024-03-02T22:22:39.844Z,50.50
2024-03-02T22:25:07.192Z,41.20
2024-03-02T22:27:36.118Z,47.00
2024-03-02T22:30:07.895Z,47.70
2024-03-02T22:32:34.765Z,47.30
2024-03-02T22:35:01.412Z,47.10
2024-03-02T22:37:28.373Z,43.80
2024-03-02T22:39:55.118Z,45.20
2024-03-02T22:42:21.866Z,44.30
2024-03-02T22:44:48.508Z,40.50
2024-03-02T22:47:15.301Z,46.50
2024-03-02T22:49:41.941Z,41.30
2024-03-02T22:52:08.828Z,39.30
2024-03-02T22:54:35.575Z,38.10
2024-03-02T22:57:02.421Z,43.00
2024-03-02T22:59:29.049Z,48.90
2024-03-02T23:01:56.103Z,43.90
2024-03-02T23:04:22.963Z,41.70
2024-03-02T23:06:49.832Z,43.80
2024-03-02T23:09:16.863Z,43.20
2024-03-02T23:11:43.564Z,43.30
2024-03-02T23:14:10.818Z,41.60
2024-03-02T23:16:39.824Z,43.20
2024-03-02T23:19:06.714Z,46.90
2024-03-02T23:21:33.381Z,41.30
2024-03-02T23:24:00.040Z,38.90
2024-03-02T23:26:26.679Z,44.50
2024-03-02T23:28:53.657Z,41.90
2024-03-02T23:31:20.399Z,44.40
2024-03-02T23:33:49.424Z,39.20
2024-03-02T23:36:16.315Z,43.90
2024-03-02T23:38:42.956Z,48.90
2024-03-02T23:41:13.015Z,40.30
2024-03-02T23:43:39.866Z,40.90
2024-03-02T23:46:08.267Z,47.60
2024-03-02T23:48:35.362Z,46.80
2024-03-02T23:51:02.449Z,39.10
2024-03-02T23:53:30.608Z,42.20
2024-03-02T23:56:09.209Z,48.50
2024-03-02T23:58:36.137Z,40.50
